Bei Facebook empfehlenBei Twitter postenGoogle plusPinterest

Das Wetter im Erzgebirge am 09.02.2016

Wetter und Klima am 09.02.2016 Holzhau im Erzgebirge (630m ü.NN)
Letzte gemessene Temperatur und Uhrzeit der Messung23:45:00 Uhr3.40 °C
Temperatur (Maximum / Höchstwert) und Uhrzeit der Messung11:45:00 Uhr7.50 °C
Temperatur (Minimum / Tiefstwert) und Uhrzeit der Messung00:00:001.60 °C
Errechneter Absolutwert der Temperaturschwankungen zwischen Tmin und Tmax des Tages5.90 K
Errechnete Tagesmitteltemperatur4.15625 °C
Gesamt - Niederschlag des Tages (in flüssiger Form)3.62 Liter / m²
Luftdruck (Maximum / Höchstwert) und Zeitpunkt der Messung07:45:00 Uhr998.30 hPa
Luftdruck (Minimum / Tiefstwert) und Zeitpunkt der Messung23:30:00 Uhr984.00 hPa
Errechneter Absolutwert der Luftdruckschwankungen des Tages14.30 hPa
Höchste gemessene Windgeschwindigkeit und Uhrzeit der Messung08:15:00 Uhr183.60 km/h
Errechnete Windhäufigkeit in Relation zu den Messwerten des Tages79.16667 %
Niedrigste Windkühle (Windchill) und Zeitpunkt der Messung08:15:00 Uhr-8.30 °C
Taupunkt (Maximum / Höchstwert) und Uhrzeit der Messung22:00:00 Uhr4.20 °C
Taupunkt (Minimum / Tiefstwert) und Uhrzeit der Messung08:00:00-0.30 °C
Anzahl der automatisch eingelesenen Messwerte 96

Detaillierte Wetter- und Klima- Messwerte für den 09.02.2016 in Holzhau im Erzgebirge (630m ü.NN)
ZeitTemperaturLuftdruckRel. LuftfeuchteWindWindrichtungWindchillTaupunktNiederschlag l/m²
23:45:003.40 °C984.20 hPa92.00 %2.52 km/hSSW3.40 °C2.20 °C3.62
23:30:003.80 °C984.00 hPa92.00 %9.72 km/hSW1.30 °C2.60 °C3.62
23:15:003.90 °C984.00 hPa92.00 %1.44 km/hSSW3.90 °C2.70 °C3.62
23:00:004.30 °C984.50 hPa93.00 %4.32 km/hSO4.30 °C3.30 °C3.62
22:45:004.40 °C984.90 hPa93.00 %17.28 km/hWSW0.70 °C3.40 °C3.62
22:30:004.70 °C985.00 hPa93.00 %2.88 km/hS4.70 °C3.70 °C3.62
22:15:004.90 °C984.60 hPa93.00 %1.08 km/hS4.90 °C3.90 °C3.62
22:00:005.20 °C985.30 hPa93.00 %2.16 km/hSW5.20 °C4.20 °C3.62
21:45:005.20 °C985.20 hPa93.00 %5.04 km/hS4.30 °C4.20 °C3.10
21:30:005.10 °C985.20 hPa93.00 %7.56 km/hSSW3.40 °C4.10 °C3.10
21:15:005.00 °C985.50 hPa93.00 %4.00 °C2.59
21:00:004.90 °C985.60 hPa92.00 %3.70 °C2.59
20:45:004.90 °C985.90 hPa92.00 %3.70 °C2.59
20:30:004.90 °C986.20 hPa92.00 %11.16 km/hSSO2.30 °C3.70 °C2.59
20:15:004.70 °C986.00 hPa92.00 %5.76 km/hSO3.50 °C3.50 °C2.59
20:00:004.60 °C986.30 hPa92.00 %8.28 km/hSW2.60 °C3.40 °C2.59
19:45:004.70 °C986.50 hPa92.00 %3.50 °C2.59
19:30:004.80 °C987.00 hPa92.00 %10.80 km/hSSO2.20 °C3.60 °C2.59
19:15:004.80 °C986.80 hPa92.00 %1.80 km/hSW4.80 °C3.60 °C2.59
19:00:004.80 °C987.20 hPa92.00 %9.00 km/hSSW2.60 °C3.60 °C2.59
18:45:004.60 °C987.40 hPa92.00 %17.28 km/hONO0.90 °C3.40 °C2.59
18:30:004.60 °C987.50 hPa92.00 %18.72 km/hSSW0.70 °C3.40 °C2.59
18:15:004.40 °C987.80 hPa92.00 %8.64 km/hWNW2.30 °C3.20 °C2.59
18:00:004.40 °C988.20 hPa92.00 %3.20 °C2.59
17:45:004.40 °C988.50 hPa92.00 %18.36 km/hOSO0.50 °C3.20 °C2.59
17:30:004.40 °C988.70 hPa92.00 %3.20 °C2.07
17:15:004.40 °C988.90 hPa91.00 %3.10 °C2.07
17:00:004.40 °C988.80 hPa91.00 %2.52 km/hSO4.40 °C3.10 °C1.55
16:45:004.20 °C988.80 hPa91.00 %2.90 °C1.55
16:30:004.10 °C989.00 hPa90.00 %8.28 km/hONO2.00 °C2.60 °C1.55
16:15:004.00 °C989.30 hPa90.00 %2.50 °C1.55
16:00:003.90 °C989.70 hPa90.00 %2.40 °C1.55
15:45:004.10 °C990.30 hPa89.00 %3.96 km/hSSO4.10 °C2.50 °C1.55
15:30:003.90 °C990.40 hPa89.00 %9.36 km/hNO1.50 °C2.30 °C1.55
15:15:003.90 °C990.70 hPa87.00 %10.44 km/hS1.20 °C1.90 °C1.03
15:00:003.80 °C990.90 hPa86.00 %8.64 km/hOSO1.60 °C1.70 °C1.03
14:45:003.80 °C991.50 hPa85.00 %2.16 km/hNNO3.80 °C1.50 °C1.03
14:30:003.90 °C992.30 hPa84.00 %1.40 °C0.51
14:15:004.40 °C992.60 hPa82.00 %10.80 km/hSO1.80 °C1.60 °C 
14:00:004.80 °C992.90 hPa80.00 %9.36 km/hSW2.60 °C1.60 °C 
13:45:004.90 °C993.30 hPa79.00 %2.88 km/hNNW4.90 °C1.60 °C 
13:30:005.00 °C993.60 hPa79.00 %1.70 °C 
13:15:005.10 °C993.70 hPa79.00 %1.80 °C 
13:00:005.10 °C994.30 hPa78.00 %2.52 km/hWNW5.10 °C1.60 °C 
12:45:005.20 °C994.90 hPa77.00 %10.08 km/hSW2.90 °C1.50 °C 
12:30:005.50 °C995.20 hPa76.00 %1.80 km/hSSO5.50 °C1.60 °C 
12:15:006.10 °C995.60 hPa74.00 %11.88 km/hSO3.60 °C1.80 °C 
12:00:007.10 °C995.50 hPa73.00 %2.60 °C 
11:45:007.50 °C996.20 hPa73.00 %5.76 km/hSW6.70 °C3.00 °C 
11:30:007.30 °C996.50 hPa73.00 %8.64 km/hW5.70 °C2.80 °C 
11:15:007.20 °C996.80 hPa74.00 %8.64 km/hSW5.60 °C2.90 °C 
11:00:006.90 °C997.20 hPa75.00 %7.92 km/hSW5.40 °C2.80 °C 
10:45:006.40 °C997.80 hPa76.00 %6.12 km/hSW5.30 °C2.50 °C 
10:30:006.40 °C997.80 hPa76.00 %4.68 km/hSSW6.40 °C2.50 °C 
10:15:006.10 °C997.30 hPa78.00 %2.60 °C 
10:00:005.60 °C997.20 hPa79.00 %18.72 km/hWSW2.00 °C2.30 °C 
09:45:004.90 °C997.30 hPa80.00 %20.16 km/hSW0.90 °C1.70 °C 
09:30:004.60 °C997.60 hPa81.00 %11.52 km/hSW1.90 °C1.60 °C 
09:15:004.10 °C997.70 hPa81.00 %7.56 km/hSW2.20 °C1.10 °C 
09:00:003.60 °C997.70 hPa81.00 %0.70 °C 
08:45:003.40 °C998.10 hPa80.00 %5.76 km/hWSW2.00 °C0.30 °C 
08:30:003.30 °C998.00 hPa80.00 %6.12 km/hSW1.70 °C0.20 °C 
08:15:003.10 °C998.00 hPa79.00 %183.60 km/hSW-8.30 °C-0.20 °C 
08:00:003.20 °C998.10 hPa78.00 %3.24 km/hSW3.20 °C-0.30 °C 
07:45:003.30 °C998.30 hPa79.00 %3.60 km/hSW3.30 °C0.00 °C 
07:30:003.30 °C998.20 hPa79.00 %4.68 km/hW3.30 °C0.00 °C 
07:15:003.30 °C998.10 hPa78.00 %9.36 km/hW0.80 °C-0.20 °C 
07:00:003.30 °C998.10 hPa78.00 %12.96 km/hNNW0.00 °C-0.20 °C 
06:45:003.20 °C997.80 hPa78.00 %13.68 km/hSW-0.20 °C-0.30 °C 
06:30:003.20 °C997.80 hPa78.00 %5.76 km/hWNW1.70 °C-0.30 °C 
06:15:003.40 °C998.10 hPa79.00 %5.76 km/hWNW2.00 °C0.10 °C 
06:00:003.50 °C998.20 hPa79.00 %14.40 km/hW0.00 °C0.20 °C 
05:45:003.30 °C998.20 hPa79.00 %0.00 °C 
05:30:003.30 °C998.10 hPa79.00 %4.32 km/hSW3.30 °C0.00 °C 
05:15:003.40 °C998.10 hPa79.00 %3.60 km/hNW3.40 °C0.10 °C 
05:00:003.30 °C997.90 hPa80.00 %21.24 km/hSSW-1.20 °C0.20 °C 
04:45:003.40 °C998.10 hPa80.00 %14.76 km/hWNW-0.20 °C0.30 °C 
04:30:003.40 °C998.20 hPa80.00 %14.40 km/hSW-0.10 °C0.30 °C 
04:15:003.50 °C998.20 hPa81.00 %3.60 km/hWNW3.50 °C0.60 °C 
04:00:003.40 °C998.20 hPa82.00 %10.44 km/hWSW0.60 °C0.60 °C 
03:45:003.30 °C998.10 hPa82.00 %10.08 km/hW0.60 °C0.50 °C 
03:30:003.20 °C998.20 hPa83.00 %3.96 km/hSSW3.20 °C0.60 °C 
03:15:003.20 °C998.10 hPa83.00 %9.00 km/hNW0.80 °C0.60 °C 
03:00:003.10 °C998.10 hPa84.00 %0.70 °C 
02:45:003.00 °C998.30 hPa85.00 %11.16 km/hS0.00 °C0.70 °C 
02:30:002.90 °C998.20 hPa85.00 %3.60 km/hWNW2.90 °C0.60 °C 
02:15:002.50 °C998.00 hPa86.00 %0.40 °C 
02:00:002.40 °C997.80 hPa86.00 %4.32 km/hW2.40 °C0.30 °C 
01:45:002.40 °C997.40 hPa86.00 %6.48 km/hSSW0.60 °C0.30 °C 
01:30:002.50 °C997.70 hPa87.00 %12.96 km/hWSW-1.00 °C0.60 °C 
01:15:002.40 °C997.70 hPa88.00 %14.76 km/hNW-1.40 °C0.60 °C 
01:00:002.20 °C997.90 hPa88.00 %19.80 km/hSW-2.40 °C0.40 °C 
00:45:002.10 °C997.80 hPa88.00 %20.16 km/hSSW-2.60 °C0.30 °C 
00:30:001.90 °C998.00 hPa88.00 %0.10 °C 
00:15:001.80 °C998.00 hPa88.00 %4.32 km/hNW1.80 °C0.00 °C 
00:00:001.60 °C998.00 hPa88.00 %6.12 km/hSSW-0.20 °C-0.20 °C 

Permanenter Link zu dieser Seite: Wetter im Erzgebirge am 09.02.2016
Performance-Info: Die Erstellung der Seite / Statistik(en) / Tabelle(n) erforderte 5 Datenbankserver-Abfrage(n) und dauerte 102 Millisekunden. (Dieser Messwert ist von der Gesamt-Auslastung des Servers abhängig.)
Erzgebirge - Wetter | Erzgebirge - Wetter (Mobilgeräte) | Komplette Klimadatenbank